CMA CGM St. Laurent — 2IOA3 — position and weather

sailwx.info

Track history (hours):
 
Tides and Currents Weather Stations Pressure Air Temp Water Temp Dewpoint Dewpoint Depression Visibility Wind Speed Wind Dir Waves Ship Positions

CMA CGM St. Laurent

Last reported at 2017-Nov-22 23:24 UTC. Time now 2017-Nov-23 15:10 UTC.
Position N 49°46' W 003°37'.

Length 190 m; draft 9.1 m.

Type: Ship. MMSI: 235111365.

Date/timePositionNaut miles runAvg speedWind from/ knotsBaromVisibWave heightAir tempDewpointWater temp
2017-Nov-22 23:24N 49°46' W 003°37'511.5
2017-Nov-22 23:00N 49°49' W 003°30'611.4
2017-Nov-22 22:30N 49°52' W 003°23'510.4
2017-Nov-22 22:00N 49°54' W 003°16'510.0
2017-Nov-22 21:29N 49°57' W 003°09'510.0
2017-Nov-22 21:00N 49°59' W 003°02'510.3
2017-Nov-22 20:30N 49°60' W 002°54'510.6
2017-Nov-22 20:01N 50°01' W 002°47'611.8
2017-Nov-22 19:30N 50°02' W 002°37'  
2017-Nov-19 23:52N 51°47' E 002°14'1218.7
2017-Nov-19 23:13N 51°39' E 001°60'418.5
2017-Nov-19 23:00N 51°37' E 001°54'918.0
2017-Nov-19 22:30N 51°33' E 001°41'713.3
2017-Nov-19 22:01N 51°30' E 001°32'0 0.3
2017-Nov-19 21:25N 51°30' E 001°31'0 0.0
2017-Nov-19 20:58N 51°30' E 001°31'0 0.0
2017-Nov-19 20:28N 51°30' E 001°31'0 0.1
2017-Nov-19 19:58N 51°30' E 001°32'0 0.1
2017-Nov-19 19:28N 51°30' E 001°32'0 0.1
2017-Nov-19 18:58N 51°30' E 001°32'0 0.1
2017-Nov-19 18:29N 51°30' E 001°32'1 2.3
2017-Nov-19 18:01N 51°29' E 001°32'4 7.8
2017-Nov-19 17:30N 51°28' E 001°26'4 8.9
2017-Nov-19 17:00N 51°29' E 001°19'3 6.0
2017-Nov-19 16:30N 51°29' E 001°14'3 5.3
2017-Nov-19 16:01N 51°29' E 001°10'611.3
2017-Nov-19 15:30N 51°30' E 001°01'816.3
2017-Nov-19 15:00N 51°29' E 000°48'816.9
2017-Nov-19 14:30N 51°30' E 000°35'3 5.9
2017-Nov-19 14:00N 51°30' E 000°30'0 0.0
2017-Nov-19 13:30N 51°30' E 000°30'0 0.0
2017-Nov-19 13:00N 51°30' E 000°30'0 0.0
2017-Nov-19 12:30N 51°30' E 000°30'0 0.0
2017-Nov-19 12:00N 51°30' E 000°30'0 0.0
2017-Nov-19 01:30N 51°30' E 000°30'0 0.0
2017-Nov-19 01:01N 51°30' E 000°30'2 3.4
2017-Nov-19 00:30N 51°30' E 000°33'5 9.7
2017-Nov-19 00:00N 51°30' E 000°40'612.2
2017-Nov-18 23:30N 51°29' E 000°50'611.1
2017-Nov-18 23:00N 51°29' E 000°59'510.7
2017-Nov-18 22:30N 51°29' E 001°08'612.5
2017-Nov-18 22:00N 51°29' E 001°18'713.4
2017-Nov-18 21:30N 51°28' E 001°28'4 8.4
2017-Nov-18 21:00N 51°24' E 001°32'5 9.1
2017-Nov-18 20:30N 51°20' E 001°35'714.7
2017-Nov-18 20:00N 51°13' E 001°39'612.6
2017-Nov-18 19:30N 51°07' E 001°41'714.7
2017-Nov-18 19:00N 51°02' E 001°33'715.0
2017-Nov-18 18:30N 50°56' E 001°26'714.5
2017-Nov-18 18:00N 50°49' E 001°24'713.6
2017-Nov-18 17:28N 50°42' E 001°20'4316.5
2017-Nov-18 14:51N 50°24' E 000°18'616.8
2017-Nov-18 14:30N 50°22' E 000°09'917.0
2017-Nov-18 14:00N 50°20' W 000°04'816.8
2017-Nov-18 13:30N 50°18' W 000°16'612.6
2017-Nov-18 13:00N 50°16' W 000°26'3017.3
2017-Nov-18 11:17N 50°08' W 001°10'518.6
2017-Nov-18 11:01N 50°07' W 001°18'1019.3
2017-Nov-18 10:30N 50°04' W 001°33'1019.9
2017-Nov-18 10:00N 50°02' W 001°48'1020.5
2017-Nov-18 09:31N 49°60' W 002°03'1120.9
2017-Nov-18 09:00N 49°57' W 002°19'2320.7
2017-Nov-18 07:53N 49°48' W 002°52'920.3
2017-Nov-18 07:28N 49°43' W 003°03'1020.2
2017-Nov-18 06:58N 49°37' W 003°16'3120.1
2017-Nov-18 05:26N 49°22' W 003°57'920.2
2017-Nov-18 05:00N 49°18' W 004°09'1120.3
2017-Nov-18 04:28N 49°13' W 004°24'920.3
2017-Nov-18 04:00N 49°09' W 004°37'1020.4
2017-Nov-18 03:30N 49°04' W 004°50'1020.1
2017-Nov-18 02:59N 48°59' W 005°04'1020.0
2017-Nov-18 02:28N 48°53' W 005°17'715.1
2017-Nov-18 02:00N 48°50' W 005°27'816.2
2017-Nov-18 01:30N 48°45' W 005°37'1020.4
2017-Nov-18 01:00N 48°36' W 005°44'1419.9
2017-Nov-18 00:17N 48°23' W 005°54'519.5
2017-Nov-18 00:01N 48°19' W 005°58'1019.3
2017-Nov-17 23:31N 48°10' W 006°04'1119.1
2017-Nov-17 22:55N 47°60' W 006°11'818.9
2017-Nov-17 22:30N 47°53' W 006°17'918.7
2017-Nov-17 22:00N 47°45' W 006°24'1018.4
2017-Nov-17 21:27N 47°36' W 006°31'818.1
2017-Nov-17 20:59N 47°28' W 006°37'918.0
2017-Nov-17 20:30N 47°20' W 006°43'1118.6
2017-Nov-17 19:56N 47°11' W 006°50'1218.1
2017-Nov-17 19:15N 47°00' W 006°58'1118.6
2017-Nov-17 18:41N 46°51' W 007°05'46414.1
2017-Nov-16 09:43N 39°23' W 009°51'313.6
2017-Nov-16 09:30N 39°20' W 009°51'713.8
2017-Nov-16 09:00N 39°13' W 009°52'713.7
2017-Nov-16 08:30N 39°06' W 009°52'816.0
2017-Nov-16 08:00N 38°58' W 009°52'714.6
2017-Nov-16 07:30N 38°51' W 009°52'713.5
2017-Nov-16 07:00N 38°44' W 009°52'713.5
2017-Nov-16 06:30N 38°38' W 009°50'713.4
2017-Nov-16 06:00N 38°31' W 009°48'713.5
2017-Nov-16 05:30N 38°24' W 009°46'713.3
2017-Nov-16 05:01N 38°18' W 009°44'713.5
2017-Nov-16 04:30N 38°11' W 009°42'713.4
2017-Nov-16 04:00N 38°05' W 009°41'713.7
2017-Nov-16 03:31N 37°58' W 009°38'713.9
2017-Nov-16 03:00N 37°51' W 009°36'713.7
2017-Nov-16 02:31N 37°45' W 009°34'713.9
2017-Nov-16 02:00N 37°38' W 009°33'714.2
2017-Nov-16 01:30N 37°31' W 009°31'714.0
2017-Nov-16 01:00N 37°24' W 009°29'714.1
2017-Nov-16 00:30N 37°17' W 009°27'713.9
2017-Nov-16 00:00N 37°11' W 009°25'713.8
2017-Nov-15 23:30N 37°04' W 009°23'3312.8
2017-Nov-15 20:57N 36°41' W 008°54'1614.4
2017-Nov-15 19:51N 36°36' W 008°35'14814.2
2017-Nov-15 09:27N 35°58' W 005°38'714.0
2017-Nov-15 08:59N 35°60' W 005°30'612.0
2017-Nov-15 08:30N 36°03' W 005°24'4 7.1
2017-Nov-15 07:58N 36°07' W 005°25'1 2.0
2017-Nov-15 07:25N 36°08' W 005°25'0 0.0
2017-Nov-15 06:58N 36°08' W 005°25'0 0.0
2017-Nov-15 06:29N 36°08' W 005°25'0 0.0
2017-Nov-15 05:59N 36°08' W 005°25'0 0.0
2017-Nov-15 05:28N 36°08' W 005°25'0 0.0
2017-Nov-15 04:59N 36°08' W 005°25'0 0.0
2017-Nov-15 04:28N 36°08' W 005°25'0 0.0
2017-Nov-15 03:59N 36°08' W 005°25'0 0.0
2017-Nov-15 03:28N 36°08' W 005°25'0 0.0
2017-Nov-15 02:59N 36°08' W 005°25'0 0.0
2017-Nov-15 02:29N 36°08' W 005°25'0 0.0
2017-Nov-15 01:59N 36°08' W 005°25'0 0.0
2017-Nov-15 00:29N 36°08' W 005°25'4 5.2
2017-Nov-14 23:43N 36°04' W 005°24'1 4.3
2017-Nov-14 23:30N 36°03' W 005°24'0 0.5
2017-Nov-14 23:00N 36°03' W 005°24'1 2.6
2017-Nov-14 22:27N 36°03' W 005°22'4 9.3
2017-Nov-14 22:00N 35°59' W 005°24'713.6
2017-Nov-14 21:30N 35°57' W 005°32'65515.1
2017-Nov-13 02:00N 27°42' W 013°57'917.9
2017-Nov-13 01:30N 27°35' W 014°03'918.4
2017-Nov-13 01:00N 27°28' W 014°10'918.9
2017-Nov-13 00:30N 27°21' W 014°16'918.4
2017-Nov-13 00:00N 27°13' W 014°22'918.7
2017-Nov-12 23:30N 27°06' W 014°29'  
Track history (hours):
 
Tides and Currents Weather Stations Pressure Air Temp Water Temp Dewpoint Dewpoint Depression Visibility Wind Speed Wind Dir Waves Ship Positions

CMA CGM St. Laurent

Last reported at 2017-Nov-22 23:24 UTC. Time now 2017-Nov-23 15:10 UTC.
Position N 49°46' W 003°37'.

Length 190 m; draft 9.1 m.

Type: Ship. MMSI: 235111365.

Date/timePositionNaut miles runAvg speedWind from/ knotsBaromVisibWave heightAir tempDewpointWater temp
2017-Nov-22 23:24N 49°46' W 003°37'511.5
2017-Nov-22 23:00N 49°49' W 003°30'611.4
2017-Nov-22 22:30N 49°52' W 003°23'510.4
2017-Nov-22 22:00N 49°54' W 003°16'510.0
2017-Nov-22 21:29N 49°57' W 003°09'510.0
2017-Nov-22 21:00N 49°59' W 003°02'510.3
2017-Nov-22 20:30N 49°60' W 002°54'510.6
2017-Nov-22 20:01N 50°01' W 002°47'611.8
2017-Nov-22 19:30N 50°02' W 002°37'  
2017-Nov-19 23:52N 51°47' E 002°14'1218.7
2017-Nov-19 23:13N 51°39' E 001°60'418.5
2017-Nov-19 23:00N 51°37' E 001°54'918.0
2017-Nov-19 22:30N 51°33' E 001°41'713.3
2017-Nov-19 22:01N 51°30' E 001°32'0 0.3
2017-Nov-19 21:25N 51°30' E 001°31'0 0.0
2017-Nov-19 20:58N 51°30' E 001°31'0 0.0
2017-Nov-19 20:28N 51°30' E 001°31'0 0.1
2017-Nov-19 19:58N 51°30' E 001°32'0 0.1
2017-Nov-19 19:28N 51°30' E 001°32'0 0.1
2017-Nov-19 18:58N 51°30' E 001°32'0 0.1
2017-Nov-19 18:29N 51°30' E 001°32'1 2.3
2017-Nov-19 18:01N 51°29' E 001°32'4 7.8
2017-Nov-19 17:30N 51°28' E 001°26'4 8.9
2017-Nov-19 17:00N 51°29' E 001°19'3 6.0
2017-Nov-19 16:30N 51°29' E 001°14'3 5.3
2017-Nov-19 16:01N 51°29' E 001°10'611.3
2017-Nov-19 15:30N 51°30' E 001°01'816.3
2017-Nov-19 15:00N 51°29' E 000°48'816.9
2017-Nov-19 14:30N 51°30' E 000°35'3 5.9
2017-Nov-19 14:00N 51°30' E 000°30'0 0.0
2017-Nov-19 13:30N 51°30' E 000°30'0 0.0
2017-Nov-19 13:00N 51°30' E 000°30'0 0.0
2017-Nov-19 12:30N 51°30' E 000°30'0 0.0
2017-Nov-19 12:00N 51°30' E 000°30'0 0.0
2017-Nov-19 01:30N 51°30' E 000°30'0 0.0
2017-Nov-19 01:01N 51°30' E 000°30'2 3.4
2017-Nov-19 00:30N 51°30' E 000°33'5 9.7
2017-Nov-19 00:00N 51°30' E 000°40'612.2
2017-Nov-18 23:30N 51°29' E 000°50'611.1
2017-Nov-18 23:00N 51°29' E 000°59'510.7
2017-Nov-18 22:30N 51°29' E 001°08'612.5
2017-Nov-18 22:00N 51°29' E 001°18'713.4
2017-Nov-18 21:30N 51°28' E 001°28'4 8.4
2017-Nov-18 21:00N 51°24' E 001°32'5 9.1
2017-Nov-18 20:30N 51°20' E 001°35'714.7
2017-Nov-18 20:00N 51°13' E 001°39'612.6
2017-Nov-18 19:30N 51°07' E 001°41'714.7
2017-Nov-18 19:00N 51°02' E 001°33'715.0
2017-Nov-18 18:30N 50°56' E 001°26'714.5
2017-Nov-18 18:00N 50°49' E 001°24'713.6
2017-Nov-18 17:28N 50°42' E 001°20'4316.5
2017-Nov-18 14:51N 50°24' E 000°18'616.8
2017-Nov-18 14:30N 50°22' E 000°09'917.0
2017-Nov-18 14:00N 50°20' W 000°04'816.8
2017-Nov-18 13:30N 50°18' W 000°16'612.6
2017-Nov-18 13:00N 50°16' W 000°26'3017.3
2017-Nov-18 11:17N 50°08' W 001°10'518.6
2017-Nov-18 11:01N 50°07' W 001°18'1019.3
2017-Nov-18 10:30N 50°04' W 001°33'1019.9
2017-Nov-18 10:00N 50°02' W 001°48'1020.5
2017-Nov-18 09:31N 49°60' W 002°03'1120.9
2017-Nov-18 09:00N 49°57' W 002°19'2320.7
2017-Nov-18 07:53N 49°48' W 002°52'920.3
2017-Nov-18 07:28N 49°43' W 003°03'1020.2
2017-Nov-18 06:58N 49°37' W 003°16'3120.1
2017-Nov-18 05:26N 49°22' W 003°57'920.2
2017-Nov-18 05:00N 49°18' W 004°09'1120.3
2017-Nov-18 04:28N 49°13' W 004°24'920.3
2017-Nov-18 04:00N 49°09' W 004°37'1020.4
2017-Nov-18 03:30N 49°04' W 004°50'1020.1
2017-Nov-18 02:59N 48°59' W 005°04'1020.0
2017-Nov-18 02:28N 48°53' W 005°17'715.1
2017-Nov-18 02:00N 48°50' W 005°27'816.2
2017-Nov-18 01:30N 48°45' W 005°37'1020.4
2017-Nov-18 01:00N 48°36' W 005°44'1419.9
2017-Nov-18 00:17N 48°23' W 005°54'519.5
2017-Nov-18 00:01N 48°19' W 005°58'1019.3
2017-Nov-17 23:31N 48°10' W 006°04'1119.1
2017-Nov-17 22:55N 47°60' W 006°11'818.9
2017-Nov-17 22:30N 47°53' W 006°17'918.7
2017-Nov-17 22:00N 47°45' W 006°24'1018.4
2017-Nov-17 21:27N 47°36' W 006°31'818.1
2017-Nov-17 20:59N 47°28' W 006°37'918.0
2017-Nov-17 20:30N 47°20' W 006°43'1118.6
2017-Nov-17 19:56N 47°11' W 006°50'1218.1
2017-Nov-17 19:15N 47°00' W 006°58'1118.6
2017-Nov-17 18:41N 46°51' W 007°05'46414.1
2017-Nov-16 09:43N 39°23' W 009°51'313.6
2017-Nov-16 09:30N 39°20' W 009°51'713.8
2017-Nov-16 09:00N 39°13' W 009°52'713.7
2017-Nov-16 08:30N 39°06' W 009°52'816.0
2017-Nov-16 08:00N 38°58' W 009°52'714.6
2017-Nov-16 07:30N 38°51' W 009°52'713.5
2017-Nov-16 07:00N 38°44' W 009°52'713.5
2017-Nov-16 06:30N 38°38' W 009°50'713.4
2017-Nov-16 06:00N 38°31' W 009°48'713.5
2017-Nov-16 05:30N 38°24' W 009°46'713.3
2017-Nov-16 05:01N 38°18' W 009°44'713.5
2017-Nov-16 04:30N 38°11' W 009°42'713.4
2017-Nov-16 04:00N 38°05' W 009°41'713.7
2017-Nov-16 03:31N 37°58' W 009°38'713.9
2017-Nov-16 03:00N 37°51' W 009°36'713.7
2017-Nov-16 02:31N 37°45' W 009°34'713.9
2017-Nov-16 02:00N 37°38' W 009°33'714.2
2017-Nov-16 01:30N 37°31' W 009°31'714.0
2017-Nov-16 01:00N 37°24' W 009°29'714.1
2017-Nov-16 00:30N 37°17' W 009°27'713.9
2017-Nov-16 00:00N 37°11' W 009°25'713.8
2017-Nov-15 23:30N 37°04' W 009°23'3312.8
2017-Nov-15 20:57N 36°41' W 008°54'1614.4
2017-Nov-15 19:51N 36°36' W 008°35'14814.2
2017-Nov-15 09:27N 35°58' W 005°38'714.0
2017-Nov-15 08:59N 35°60' W 005°30'612.0
2017-Nov-15 08:30N 36°03' W 005°24'4 7.1
2017-Nov-15 07:58N 36°07' W 005°25'1 2.0
2017-Nov-15 07:25N 36°08' W 005°25'0 0.0
2017-Nov-15 06:58N 36°08' W 005°25'0 0.0
2017-Nov-15 06:29N 36°08' W 005°25'0 0.0
2017-Nov-15 05:59N 36°08' W 005°25'0 0.0
2017-Nov-15 05:28N 36°08' W 005°25'0 0.0
2017-Nov-15 04:59N 36°08' W 005°25'0 0.0
2017-Nov-15 04:28N 36°08' W 005°25'0 0.0
2017-Nov-15 03:59N 36°08' W 005°25'0 0.0
2017-Nov-15 03:28N 36°08' W 005°25'0 0.0
2017-Nov-15 02:59N 36°08' W 005°25'0 0.0
2017-Nov-15 02:29N 36°08' W 005°25'0 0.0
2017-Nov-15 01:59N 36°08' W 005°25'0 0.0
2017-Nov-15 00:29N 36°08' W 005°25'4 5.2
2017-Nov-14 23:43N 36°04' W 005°24'1 4.3
2017-Nov-14 23:30N 36°03' W 005°24'0 0.5
2017-Nov-14 23:00N 36°03' W 005°24'1 2.6
2017-Nov-14 22:27N 36°03' W 005°22'4 9.3
2017-Nov-14 22:00N 35°59' W 005°24'713.6
2017-Nov-14 21:30N 35°57' W 005°32'65515.1
2017-Nov-13 02:00N 27°42' W 013°57'917.9
2017-Nov-13 01:30N 27°35' W 014°03'918.4
2017-Nov-13 01:00N 27°28' W 014°10'918.9
2017-Nov-13 00:30N 27°21' W 014°16'918.4
2017-Nov-13 00:00N 27°13' W 014°22'918.7
2017-Nov-12 23:30N 27°06' W 014°29'  

Dump ship's entire track history